Thalassa — FNFP — position and weather

sailwx.info

Track history (hours):
 
Tides and Currents Weather Stations Pressure Air Temp Water Temp Dewpoint Dewpoint Depression Visibility Wind Speed Wind Dir Waves Ship Positions

Oceanographic research ship Thalassa (France & Spain)

Detailed information on ship capabilities available from University of Delaware's Ocean Information Center.

Last reported at 2014-Dec-04 07:20 UTC. Time now 2014-Dec-18 19:30 UTC.
Position N 48°23' W 004°29'.
Warning: this ship's position is 14 days out of date.

Length 74 m; beam 15 m.

Type: . MMSI: 227297000.

Date/timePositionNaut miles runAvg speedWind from/ knotsBaromVisibWave heightAir tempDewpointWater temp
2014-Dec-04 07:20N 48°23' W 004°29'0 0.0
2014-Dec-02 09:33N 48°23' W 004°29'0 0.0
2014-Dec-02 08:33N 48°23' W 004°29'0 0.0
2014-Dec-02 07:30N 48°23' W 004°29'0 0.0
2014-Dec-01 15:32N 48°23' W 004°29'0 0.0
2014-Dec-01 14:32N 48°23' W 004°29'0 0.0
2014-Dec-01 13:32N 48°23' W 004°29'0 0.0
2014-Dec-01 12:32N 48°23' W 004°29'0 0.0
2014-Dec-01 11:32N 48°23' W 004°29'0 0.0
2014-Dec-01 10:32N 48°23' W 004°29'0 0.0
2014-Dec-01 09:32N 48°23' W 004°29'0 0.0
2014-Dec-01 08:32N 48°23' W 004°29'0 0.0
2014-Dec-01 07:32N 48°23' W 004°29'0 0.0
2014-Dec-01 06:32N 48°23' W 004°29'0 0.0
2014-Dec-01 05:32N 48°23' W 004°29'0 0.0
2014-Dec-01 04:32N 48°23' W 004°29'0 0.0
2014-Dec-01 03:32N 48°23' W 004°29'0 0.0
2014-Dec-01 02:32N 48°23' W 004°29'0 0.0
2014-Dec-01 01:32N 48°23' W 004°29'0 0.0
2014-Dec-01 00:32N 48°23' W 004°29'0 0.0
2014-Nov-30 23:32N 48°23' W 004°29'0 0.0
2014-Nov-30 22:32N 48°23' W 004°29'0 0.0
2014-Nov-30 21:32N 48°23' W 004°29'0 0.0
2014-Nov-30 20:32N 48°23' W 004°29'0 0.0
2014-Nov-30 19:32N 48°23' W 004°29'0 0.0
2014-Nov-30 18:32N 48°23' W 004°29'0 0.0
2014-Nov-30 17:32N 48°23' W 004°29'0 0.0
2014-Nov-30 16:32N 48°23' W 004°29'0 0.0
2014-Nov-30 15:32N 48°23' W 004°29'0 0.0
2014-Nov-30 14:32N 48°23' W 004°29'4 3.8
2014-Nov-30 13:33N 48°21' W 004°33'8 8.4
2014-Nov-30 12:33N 48°17' W 004°45'1211.5
2014-Nov-30 11:33N 48°14' W 005°01'46 4.9
2014-Nov-30 02:07N 48°27' W 006°07'9 8.5
2014-Nov-30 01:06N 48°34' W 006°16'  
2014-Nov-25 20:07N 51°46' W 006°32'3 0.6
2014-Nov-25 15:15N 51°48' W 006°35'4 5.3
2014-Nov-25 14:28N 51°47' W 006°42'5 5.3
2014-Nov-25 13:30N 51°45' W 006°49'1111.1
2014-Nov-25 12:28N 51°42' W 007°06'1011.4
2014-Nov-25 11:33N 51°39' W 007°23'4 4.0
2014-Nov-25 10:33N 51°37' W 007°28'1111.2
2014-Nov-25 09:33N 51°40' W 007°45'9 9.1
2014-Nov-25 08:34N 51°43' W 007°59'3 3.1
2014-Nov-25 07:34N 51°41' W 008°03'3 2.6
2014-Nov-25 06:34N 51°43' W 007°60'2 1.7
2014-Nov-25 05:33N 51°44' W 007°58'1 1.2
2014-Nov-25 04:34N 51°43' W 007°59'1 1.1
2014-Nov-25 03:33N 51°42' W 008°00'3 2.9
2014-Nov-25 02:34N 51°40' W 008°03'3 3.4
2014-Nov-25 01:34N 51°37' W 008°06'3 3.2
2014-Nov-25 00:34N 51°34' W 008°09'4 4.0
2014-Nov-24 23:34N 51°31' W 008°13'5 4.9
2014-Nov-24 22:34N 51°27' W 008°17'6 5.6
2014-Nov-24 21:34N 51°23' W 008°22'6 5.8
2014-Nov-24 20:33N 51°18' W 008°28'6 5.4
2014-Nov-24 19:32N 51°13' W 008°33'1 1.3
2014-Nov-24 18:33N 51°12' W 008°32'1 0.6
2014-Nov-24 17:30N 51°13' W 008°31'1 0.5
2014-Nov-24 16:27N 51°13' W 008°31'2 1.9
2014-Nov-24 15:32N 51°12' W 008°33'8 8.2
2014-Nov-24 14:32N 51°09' W 008°45'7 6.8
2014-Nov-24 13:33N 51°07' W 008°56'5 5.2
2014-Nov-24 12:33N 51°09' W 009°03'1111.5
2014-Nov-24 11:34N 51°08' W 009°21'4 4.5
2014-Nov-24 10:34N 51°09' W 009°28'8 7.5
2014-Nov-24 09:33N 51°09' W 009°40'8 8.1
2014-Nov-24 08:33N 51°09' W 009°53'3 2.9
2014-Nov-24 07:34N 51°10' W 009°57'  
Track history (hours):
 
Tides and Currents Weather Stations Pressure Air Temp Water Temp Dewpoint Dewpoint Depression Visibility Wind Speed Wind Dir Waves Ship Positions

Oceanographic research ship Thalassa (France & Spain)

Detailed information on ship capabilities available from University of Delaware's Ocean Information Center.

Last reported at 2014-Dec-04 07:20 UTC. Time now 2014-Dec-18 19:30 UTC.
Position N 48°23' W 004°29'.
Warning: this ship's position is 14 days out of date.

Length 74 m; beam 15 m.

Type: . MMSI: 227297000.

Date/timePositionNaut miles runAvg speedWind from/ knotsBaromVisibWave heightAir tempDewpointWater temp
2014-Dec-04 07:20N 48°23' W 004°29'0 0.0
2014-Dec-02 09:33N 48°23' W 004°29'0 0.0
2014-Dec-02 08:33N 48°23' W 004°29'0 0.0
2014-Dec-02 07:30N 48°23' W 004°29'0 0.0
2014-Dec-01 15:32N 48°23' W 004°29'0 0.0
2014-Dec-01 14:32N 48°23' W 004°29'0 0.0
2014-Dec-01 13:32N 48°23' W 004°29'0 0.0
2014-Dec-01 12:32N 48°23' W 004°29'0 0.0
2014-Dec-01 11:32N 48°23' W 004°29'0 0.0
2014-Dec-01 10:32N 48°23' W 004°29'0 0.0
2014-Dec-01 09:32N 48°23' W 004°29'0 0.0
2014-Dec-01 08:32N 48°23' W 004°29'0 0.0
2014-Dec-01 07:32N 48°23' W 004°29'0 0.0
2014-Dec-01 06:32N 48°23' W 004°29'0 0.0
2014-Dec-01 05:32N 48°23' W 004°29'0 0.0
2014-Dec-01 04:32N 48°23' W 004°29'0 0.0
2014-Dec-01 03:32N 48°23' W 004°29'0 0.0
2014-Dec-01 02:32N 48°23' W 004°29'0 0.0
2014-Dec-01 01:32N 48°23' W 004°29'0 0.0
2014-Dec-01 00:32N 48°23' W 004°29'0 0.0
2014-Nov-30 23:32N 48°23' W 004°29'0 0.0
2014-Nov-30 22:32N 48°23' W 004°29'0 0.0
2014-Nov-30 21:32N 48°23' W 004°29'0 0.0
2014-Nov-30 20:32N 48°23' W 004°29'0 0.0
2014-Nov-30 19:32N 48°23' W 004°29'0 0.0
2014-Nov-30 18:32N 48°23' W 004°29'0 0.0
2014-Nov-30 17:32N 48°23' W 004°29'0 0.0
2014-Nov-30 16:32N 48°23' W 004°29'0 0.0
2014-Nov-30 15:32N 48°23' W 004°29'0 0.0
2014-Nov-30 14:32N 48°23' W 004°29'4 3.8
2014-Nov-30 13:33N 48°21' W 004°33'8 8.4
2014-Nov-30 12:33N 48°17' W 004°45'1211.5
2014-Nov-30 11:33N 48°14' W 005°01'46 4.9
2014-Nov-30 02:07N 48°27' W 006°07'9 8.5
2014-Nov-30 01:06N 48°34' W 006°16'  
2014-Nov-25 20:07N 51°46' W 006°32'3 0.6
2014-Nov-25 15:15N 51°48' W 006°35'4 5.3
2014-Nov-25 14:28N 51°47' W 006°42'5 5.3
2014-Nov-25 13:30N 51°45' W 006°49'1111.1
2014-Nov-25 12:28N 51°42' W 007°06'1011.4
2014-Nov-25 11:33N 51°39' W 007°23'4 4.0
2014-Nov-25 10:33N 51°37' W 007°28'1111.2
2014-Nov-25 09:33N 51°40' W 007°45'9 9.1
2014-Nov-25 08:34N 51°43' W 007°59'3 3.1
2014-Nov-25 07:34N 51°41' W 008°03'3 2.6
2014-Nov-25 06:34N 51°43' W 007°60'2 1.7
2014-Nov-25 05:33N 51°44' W 007°58'1 1.2
2014-Nov-25 04:34N 51°43' W 007°59'1 1.1
2014-Nov-25 03:33N 51°42' W 008°00'3 2.9
2014-Nov-25 02:34N 51°40' W 008°03'3 3.4
2014-Nov-25 01:34N 51°37' W 008°06'3 3.2
2014-Nov-25 00:34N 51°34' W 008°09'4 4.0
2014-Nov-24 23:34N 51°31' W 008°13'5 4.9
2014-Nov-24 22:34N 51°27' W 008°17'6 5.6
2014-Nov-24 21:34N 51°23' W 008°22'6 5.8
2014-Nov-24 20:33N 51°18' W 008°28'6 5.4
2014-Nov-24 19:32N 51°13' W 008°33'1 1.3
2014-Nov-24 18:33N 51°12' W 008°32'1 0.6
2014-Nov-24 17:30N 51°13' W 008°31'1 0.5
2014-Nov-24 16:27N 51°13' W 008°31'2 1.9
2014-Nov-24 15:32N 51°12' W 008°33'8 8.2
2014-Nov-24 14:32N 51°09' W 008°45'7 6.8
2014-Nov-24 13:33N 51°07' W 008°56'5 5.2
2014-Nov-24 12:33N 51°09' W 009°03'1111.5
2014-Nov-24 11:34N 51°08' W 009°21'4 4.5
2014-Nov-24 10:34N 51°09' W 009°28'8 7.5
2014-Nov-24 09:33N 51°09' W 009°40'8 8.1
2014-Nov-24 08:33N 51°09' W 009°53'3 2.9
2014-Nov-24 07:34N 51°10' W 009°57'  

Dump ship's entire track history